createdAt,value
2024-01-09T00:00:07.305Z,-14.41
2024-01-09T00:00:20.760Z,-14.42
2024-01-09T00:00:53.717Z,-14.42
2024-01-09T00:01:26.672Z,-14.43
2024-01-09T00:01:43.627Z,-14.44
2024-01-09T00:01:57.743Z,-14.44
2024-01-09T00:02:10.855Z,-14.45
2024-01-09T00:02:24.175Z,-14.45
2024-01-09T00:02:37.522Z,-14.46
2024-01-09T00:02:50.723Z,-14.47
2024-01-09T00:03:04.619Z,-14.47
2024-01-09T00:03:17.909Z,-14.48
2024-01-09T00:03:31.965Z,-14.48
2024-01-09T00:03:46.022Z,-14.48
2024-01-09T00:03:59.664Z,-14.49
2024-01-09T00:04:13.136Z,-14.49
2024-01-09T00:04:27.527Z,-14.49
2024-01-09T00:04:40.487Z,-14.50
2024-01-09T00:04:53.569Z,-14.51
2024-01-09T00:05:07.185Z,-14.51
2024-01-09T00:05:20.231Z,-14.53
2024-01-09T00:05:34.439Z,-14.52
2024-01-09T00:05:47.758Z,-14.52
2024-01-09T00:06:00.939Z,-14.53
2024-01-09T00:06:15.291Z,-14.53
2024-01-09T00:06:29.193Z,-14.52
2024-01-09T00:06:42.249Z,-14.53
2024-01-09T00:06:55.402Z,-14.54
2024-01-09T00:07:08.559Z,-14.54
2024-01-09T00:07:21.709Z,-14.53
2024-01-09T00:07:35.136Z,-14.55
2024-01-09T00:07:49.159Z,-14.54
2024-01-09T00:08:02.142Z,-14.55
2024-01-09T00:08:15.157Z,-14.57
2024-01-09T00:08:28.152Z,-14.55
2024-01-09T00:08:41.252Z,-14.55
2024-01-09T00:08:54.294Z,-14.56
2024-01-09T00:09:07.536Z,-14.55
2024-01-09T00:09:21.906Z,-14.56
2024-01-09T00:09:35.821Z,-14.57
2024-01-09T00:09:49.350Z,-14.56
2024-01-09T00:10:02.566Z,-14.57
2024-01-09T00:10:15.656Z,-14.57
2024-01-09T00:10:28.644Z,-14.56
2024-01-09T00:10:41.614Z,-14.58
2024-01-09T00:10:54.886Z,-14.58
2024-01-09T00:11:08.125Z,-14.58
2024-01-09T00:11:21.211Z,-14.58
2024-01-09T00:11:35.294Z,-14.59
2024-01-09T00:11:48.746Z,-14.59
2024-01-09T00:12:01.879Z,-14.59
2024-01-09T00:12:14.883Z,-14.59
2024-01-09T00:12:27.829Z,-14.60
2024-01-09T00:12:41.039Z,-14.60
2024-01-09T00:12:54.098Z,-14.60
2024-01-09T00:13:07.114Z,-14.60
2024-01-09T00:13:20.124Z,-14.62
2024-01-09T00:13:33.448Z,-14.61
2024-01-09T00:13:47.457Z,-14.63
2024-01-09T00:14:00.474Z,-14.63
2024-01-09T00:14:13.584Z,-14.64
2024-01-09T00:14:26.711Z,-14.65
2024-01-09T00:14:39.764Z,-14.66
2024-01-09T00:14:52.789Z,-14.64
2024-01-09T00:15:08.348Z,-14.67
2024-01-09T00:15:21.327Z,-14.67
2024-01-09T00:15:34.283Z,-14.68
2024-01-09T00:15:48.301Z,-14.68
2024-01-09T00:16:01.355Z,-14.68
2024-01-09T00:16:14.456Z,-14.69
2024-01-09T00:16:27.462Z,-14.69
2024-01-09T00:16:40.458Z,-14.71
2024-01-09T00:16:53.699Z,-14.71
2024-01-09T00:17:07.086Z,-14.71
2024-01-09T00:17:20.165Z,-14.71
2024-01-09T00:17:34.272Z,-14.71
2024-01-09T00:17:47.727Z,-14.72
2024-01-09T00:18:00.949Z,-14.72
2024-01-09T00:18:14.148Z,-14.72
2024-01-09T00:18:27.334Z,-14.73
2024-01-09T00:18:40.572Z,-14.74
2024-01-09T00:18:55.188Z,-14.75
2024-01-09T00:19:08.456Z,-14.75
2024-01-09T00:19:21.899Z,-14.76
2024-01-09T00:19:37.474Z,-14.77
2024-01-09T00:19:50.452Z,-14.77
2024-01-09T00:20:04.201Z,-14.77
2024-01-09T00:20:17.961Z,-14.78
2024-01-09T00:20:31.132Z,-14.77
2024-01-09T00:20:44.089Z,-14.78
2024-01-09T00:20:57.613Z,-14.78
2024-01-09T00:21:10.680Z,-14.78
2024-01-09T00:21:25.144Z,-14.78
2024-01-09T00:21:39.680Z,-14.78
2024-01-09T00:21:54.032Z,-14.79
2024-01-09T00:22:07.010Z,-14.79
2024-01-09T00:22:19.999Z,-14.80
2024-01-09T00:22:33.002Z,-14.80
2024-01-09T00:22:45.993Z,-14.79
2024-01-09T00:22:58.996Z,-14.80
2024-01-09T00:23:11.952Z,-14.80
2024-01-09T00:23:25.990Z,-14.81
2024-01-09T00:23:39.132Z,-14.81
2024-01-09T00:23:52.252Z,-14.81
2024-01-09T00:24:05.657Z,-14.81
2024-01-09T00:24:18.680Z,-14.81
2024-01-09T00:24:31.938Z,-14.81
2024-01-09T00:24:44.876Z,-14.81
2024-01-09T00:24:57.826Z,-14.81
2024-01-09T00:25:10.767Z,-14.82
2024-01-09T00:25:24.778Z,-14.83
2024-01-09T00:25:37.882Z,-14.82
2024-01-09T00:25:52.792Z,-14.82
2024-01-09T00:26:05.840Z,-14.82
2024-01-09T00:26:20.188Z,-14.83
2024-01-09T00:26:33.200Z,-14.83
2024-01-09T00:26:46.940Z,-14.82
2024-01-09T00:27:00.022Z,-14.82
2024-01-09T00:27:13.041Z,-14.83
2024-01-09T00:27:26.045Z,-14.83
2024-01-09T00:27:40.262Z,-14.83
2024-01-09T00:27:53.230Z,-14.83
2024-01-09T00:28:06.657Z,-14.84
2024-01-09T00:28:19.998Z,-14.84
2024-01-09T00:28:32.929Z,-14.84
2024-01-09T00:28:45.897Z,-14.83
2024-01-09T00:28:58.880Z,-14.84
2024-01-09T00:29:12.160Z,-14.84
2024-01-09T00:29:25.418Z,-14.85
2024-01-09T00:29:39.522Z,-14.84
2024-01-09T00:29:52.697Z,-14.85
2024-01-09T00:30:06.872Z,-14.84
2024-01-09T00:30:20.871Z,-14.85
2024-01-09T00:30:34.051Z,-14.85
2024-01-09T00:30:47.294Z,-14.85
2024-01-09T00:31:00.429Z,-14.85
2024-01-09T00:31:13.674Z,-14.85
2024-01-09T00:31:27.549Z,-14.86
2024-01-09T00:31:40.615Z,-14.86
2024-01-09T00:31:53.992Z,-14.86
2024-01-09T00:32:09.168Z,-14.85
2024-01-09T00:32:22.911Z,-14.86
2024-01-09T00:32:35.990Z,-14.86
2024-01-09T00:32:50.501Z,-14.86
2024-01-09T00:33:03.900Z,-14.85
2024-01-09T00:33:18.234Z,-14.85
2024-01-09T00:33:31.584Z,-14.86
2024-01-09T00:33:44.802Z,-14.85
2024-01-09T00:33:57.914Z,-14.85
2024-01-09T00:34:11.006Z,-14.86
2024-01-09T00:34:24.157Z,-14.86
2024-01-09T00:34:38.603Z,-14.86
2024-01-09T00:34:51.785Z,-14.87
2024-01-09T00:35:05.415Z,-14.86
2024-01-09T00:35:18.764Z,-14.87
2024-01-09T00:35:33.061Z,-14.87
2024-01-09T00:35:46.314Z,-14.87
2024-01-09T00:35:59.343Z,-14.88
2024-01-09T00:36:12.247Z,-14.88
2024-01-09T00:36:25.857Z,-14.87
2024-01-09T00:36:43.653Z,-14.89
2024-01-09T00:36:56.568Z,-14.88
2024-01-09T00:37:09.558Z,-14.88
2024-01-09T00:37:23.542Z,-14.89
2024-01-09T00:37:36.453Z,-14.89
2024-01-09T00:37:49.320Z,-14.89
2024-01-09T00:38:02.729Z,-14.89
2024-01-09T00:38:15.701Z,-14.89
2024-01-09T00:38:28.681Z,-14.89
2024-01-09T00:38:41.670Z,-14.90
2024-01-09T00:38:55.102Z,-14.89
2024-01-09T00:39:09.319Z,-14.91
2024-01-09T00:39:22.232Z,-14.91
2024-01-09T00:39:35.098Z,-14.91
2024-01-09T00:39:48.808Z,-14.92
2024-01-09T00:40:01.726Z,-14.92
2024-01-09T00:40:14.777Z,-14.93
2024-01-09T00:40:27.686Z,-14.93
2024-01-09T00:40:41.362Z,-14.93
2024-01-09T00:40:54.394Z,-14.93
2024-01-09T00:41:08.301Z,-14.94
2024-01-09T00:41:21.367Z,-14.94
2024-01-09T00:41:34.372Z,-14.93
2024-01-09T00:41:47.420Z,-14.94
2024-01-09T00:42:00.530Z,-14.93
2024-01-09T00:42:13.520Z,-14.95
2024-01-09T00:42:26.680Z,-14.94
2024-01-09T00:42:39.556Z,-14.96
2024-01-09T00:42:52.407Z,-14.97
2024-01-09T00:43:05.336Z,-14.97
2024-01-09T00:43:19.487Z,-14.97
2024-01-09T00:43:32.412Z,-14.97
2024-01-09T00:43:45.277Z,-14.98
2024-01-09T00:43:58.618Z,-14.98
2024-01-09T00:44:11.580Z,-14.98
2024-01-09T00:44:24.672Z,-14.98
2024-01-09T00:44:37.846Z,-14.98
2024-01-09T00:44:50.913Z,-14.99
2024-01-09T00:45:06.016Z,-14.98
2024-01-09T00:45:20.117Z,-14.99
2024-01-09T00:45:35.434Z,-14.99
2024-01-09T00:45:49.285Z,-14.99
2024-01-09T00:46:02.472Z,-14.99
2024-01-09T00:46:15.649Z,-14.99
2024-01-09T00:46:29.745Z,-14.98
2024-01-09T00:46:42.784Z,-14.99
2024-01-09T00:46:55.681Z,-15.00
2024-01-09T00:47:08.688Z,-15.00
2024-01-09T00:47:21.616Z,-15.00
2024-01-09T00:47:34.658Z,-15.00
2024-01-09T00:47:48.858Z,-15.01
2024-01-09T00:48:01.895Z,-15.00
2024-01-09T00:48:16.807Z,-15.00
2024-01-09T00:48:30.190Z,-15.01
2024-01-09T00:48:43.275Z,-15.01
2024-01-09T00:48:56.596Z,-15.00
2024-01-09T00:49:09.626Z,-15.00
2024-01-09T00:49:22.690Z,-15.00
2024-01-09T00:49:35.980Z,-15.00
2024-01-09T00:49:50.494Z,-15.00
2024-01-09T00:50:03.557Z,-15.00
2024-01-09T00:50:17.726Z,-15.00
2024-01-09T00:50:30.685Z,-15.00
2024-01-09T00:50:43.996Z,-14.99
2024-01-09T00:50:56.927Z,-15.00
2024-01-09T00:51:09.839Z,-14.99
2024-01-09T00:51:22.809Z,-15.01
2024-01-09T00:51:35.699Z,-15.00
2024-01-09T00:51:48.702Z,-15.01
2024-01-09T00:52:03.627Z,-15.00
2024-01-09T00:52:16.589Z,-15.00
2024-01-09T00:52:29.669Z,-15.00
2024-01-09T00:52:42.620Z,-15.00
2024-01-09T00:52:55.641Z,-15.01
2024-01-09T00:53:09.142Z,-15.00
2024-01-09T00:53:22.315Z,-15.00
2024-01-09T00:53:35.287Z,-15.00
2024-01-09T00:53:48.185Z,-15.00
2024-01-09T00:54:01.107Z,-15.00
2024-01-09T00:54:14.106Z,-15.00
2024-01-09T00:54:28.053Z,-15.00
2024-01-09T00:54:43.310Z,-15.00
2024-01-09T00:54:56.278Z,-15.01
2024-01-09T00:55:09.614Z,-15.01
2024-01-09T00:55:22.547Z,-15.01
2024-01-09T00:55:35.375Z,-15.01
2024-01-09T00:55:48.585Z,-15.01
2024-01-09T00:56:01.442Z,-15.01
2024-01-09T00:56:15.529Z,-15.02
2024-01-09T00:56:42.939Z,-15.01
2024-01-09T00:56:56.079Z,-15.02
2024-01-09T00:57:09.044Z,-15.02
2024-01-09T00:57:23.250Z,-15.02
2024-01-09T00:57:37.199Z,-15.02
2024-01-09T00:57:50.048Z,-15.01
2024-01-09T00:58:02.985Z,-15.02
2024-01-09T00:58:16.892Z,-15.02
2024-01-09T00:58:29.961Z,-15.03
2024-01-09T00:58:42.949Z,-15.02
2024-01-09T00:58:55.911Z,-15.01
2024-01-09T00:59:09.560Z,-15.02
2024-01-09T00:59:22.553Z,-15.01
2024-01-09T00:59:36.028Z,-15.01
2024-01-09T00:59:49.231Z,-15.01
2024-01-09T01:00:02.126Z,-15.01
2024-01-09T01:00:17.904Z,-15.02
2024-01-09T01:00:30.823Z,-15.01
2024-01-09T01:00:43.761Z,-15.01
2024-01-09T01:00:57.014Z,-15.01
2024-01-09T01:01:10.976Z,-15.01
2024-01-09T01:01:24.036Z,-15.01
2024-01-09T01:01:37.085Z,-15.01
2024-01-09T01:01:50.847Z,-15.00
2024-01-09T01:02:05.273Z,-15.01
2024-01-09T01:02:18.313Z,-15.01
2024-01-09T01:02:31.310Z,-15.01
2024-01-09T01:02:44.218Z,-15.01
2024-01-09T01:02:57.357Z,-15.00
2024-01-09T01:03:10.258Z,-14.99
2024-01-09T01:03:23.270Z,-15.00
2024-01-09T01:03:36.425Z,-15.01
2024-01-09T01:03:50.852Z,-15.01
2024-01-09T01:04:03.922Z,-15.00
2024-01-09T01:04:17.026Z,-15.01
2024-01-09T01:04:30.101Z,-15.02
2024-01-09T01:04:43.288Z,-15.01
2024-01-09T01:04:57.667Z,-15.01
2024-01-09T01:05:14.320Z,-15.01
2024-01-09T01:05:27.580Z,-15.01
2024-01-09T01:05:40.657Z,-15.02
2024-01-09T01:05:54.945Z,-15.02
2024-01-09T01:06:08.184Z,-15.03
2024-01-09T01:06:21.138Z,-15.02
2024-01-09T01:06:41.566Z,-15.03
2024-01-09T01:06:54.668Z,-15.02
2024-01-09T01:07:07.740Z,-15.03
2024-01-09T01:07:20.739Z,-15.02
2024-01-09T01:07:33.941Z,-15.03
2024-01-09T01:07:46.819Z,-15.03
2024-01-09T01:08:00.865Z,-15.03
2024-01-09T01:08:13.833Z,-15.03
2024-01-09T01:08:26.742Z,-15.04
2024-01-09T01:08:39.806Z,-15.04
2024-01-09T01:08:53.025Z,-15.04
2024-01-09T01:09:06.239Z,-15.05
2024-01-09T01:09:19.719Z,-15.04
2024-01-09T01:09:32.767Z,-15.05
2024-01-09T01:09:45.668Z,-15.05
2024-01-09T01:09:59.575Z,-15.05
2024-01-09T01:10:17.541Z,-15.05
2024-01-09T01:10:32.945Z,-15.06
2024-01-09T01:10:45.950Z,-15.06
2024-01-09T01:10:58.889Z,-15.06
2024-01-09T01:11:12.239Z,-15.05
2024-01-09T01:11:25.246Z,-15.06
2024-01-09T01:11:39.411Z,-15.06
2024-01-09T01:11:52.491Z,-15.06
2024-01-09T01:12:06.103Z,-15.06
2024-01-09T01:12:19.035Z,-15.06
2024-01-09T01:12:32.475Z,-15.07
2024-01-09T01:12:45.543Z,-15.07
2024-01-09T01:12:58.491Z,-15.07
2024-01-09T01:13:12.498Z,-15.07
2024-01-09T01:13:25.439Z,-15.08
2024-01-09T01:13:38.379Z,-15.07
2024-01-09T01:13:51.275Z,-15.07
2024-01-09T01:14:04.264Z,-15.08
2024-01-09T01:14:17.228Z,-15.08
2024-01-09T01:14:30.213Z,-15.08
2024-01-09T01:14:43.564Z,-15.07
2024-01-09T01:14:56.582Z,-15.09
2024-01-09T01:15:10.306Z,-15.08
2024-01-09T01:15:25.286Z,-15.08
2024-01-09T01:15:38.200Z,-15.09
2024-01-09T01:15:51.087Z,-15.08
2024-01-09T01:16:04.189Z,-15.08
2024-01-09T01:16:17.081Z,-15.09
2024-01-09T01:16:29.998Z,-15.09
2024-01-09T01:16:43.103Z,-15.08
2024-01-09T01:16:56.054Z,-15.08
2024-01-09T01:17:09.178Z,-15.08
2024-01-09T01:17:23.257Z,-15.08
2024-01-09T01:17:36.323Z,-15.08
2024-01-09T01:17:49.406Z,-15.07
2024-01-09T01:18:02.832Z,-15.08
2024-01-09T01:18:16.194Z,-15.08
2024-01-09T01:18:29.253Z,-15.07
2024-01-09T01:18:42.260Z,-15.07
2024-01-09T01:18:55.300Z,-15.07
2024-01-09T01:19:08.443Z,-15.07
2024-01-09T01:19:22.508Z,-15.07
2024-01-09T01:19:35.695Z,-15.06
2024-01-09T01:19:48.744Z,-15.07
2024-01-09T01:20:03.772Z,-15.08
2024-01-09T01:20:16.876Z,-15.06
2024-01-09T01:20:29.983Z,-15.07
2024-01-09T01:20:43.127Z,-15.06
2024-01-09T01:20:56.191Z,-15.07
2024-01-09T01:21:10.185Z,-15.07
2024-01-09T01:21:23.515Z,-15.07
2024-01-09T01:21:36.464Z,-15.06
2024-01-09T01:21:49.797Z,-15.07
2024-01-09T01:22:02.724Z,-15.07
2024-01-09T01:22:15.837Z,-15.08
2024-01-09T01:22:28.806Z,-15.08
2024-01-09T01:22:42.391Z,-15.07
2024-01-09T01:22:55.376Z,-15.07
2024-01-09T01:23:09.572Z,-15.07
2024-01-09T01:23:22.550Z,-15.07
2024-01-09T01:23:35.538Z,-15.08
2024-01-09T01:23:48.850Z,-15.07
2024-01-09T01:24:01.986Z,-15.08
2024-01-09T01:24:15.210Z,-15.08
2024-01-09T01:24:28.199Z,-15.07
2024-01-09T01:24:42.133Z,-15.07
2024-01-09T01:24:55.059Z,-15.08
2024-01-09T01:25:09.429Z,-15.08
2024-01-09T01:25:22.726Z,-15.07
2024-01-09T01:25:36.021Z,-15.07
2024-01-09T01:25:49.221Z,-15.07
2024-01-09T01:26:02.132Z,-15.08
2024-01-09T01:26:16.378Z,-15.08
2024-01-09T01:26:30.535Z,-15.07
2024-01-09T01:26:43.528Z,-15.07
2024-01-09T01:26:56.481Z,-15.07
2024-01-09T01:27:09.468Z,-15.08
2024-01-09T01:27:22.452Z,-15.07
2024-01-09T01:27:35.366Z,-15.07
2024-01-09T01:27:48.241Z,-15.07
2024-01-09T01:28:02.176Z,-15.08
2024-01-09T01:28:15.446Z,-15.07
2024-01-09T01:28:28.376Z,-15.06
2024-01-09T01:28:41.433Z,-15.07
2024-01-09T01:28:54.379Z,-15.09
2024-01-09T01:29:07.868Z,-15.07
2024-01-09T01:29:20.824Z,-15.07
2024-01-09T01:29:33.725Z,-15.08
2024-01-09T01:29:46.860Z,-15.06
2024-01-09T01:29:59.994Z,-15.07
2024-01-09T01:30:14.253Z,-15.07
2024-01-09T01:30:27.231Z,-15.08
2024-01-09T01:30:40.229Z,-15.08
2024-01-09T01:30:53.621Z,-15.08
2024-01-09T01:31:06.628Z,-15.09
2024-01-09T01:31:19.587Z,-15.09
2024-01-09T01:31:32.469Z,-15.09
2024-01-09T01:31:47.041Z,-15.09
2024-01-09T01:32:00.987Z,-15.09
2024-01-09T01:32:13.978Z,-15.09
2024-01-09T01:32:27.022Z,-15.10
2024-01-09T01:32:40.977Z,-15.11
2024-01-09T01:32:53.965Z,-15.11
2024-01-09T01:33:07.691Z,-15.11
2024-01-09T01:33:21.370Z,-15.12
2024-01-09T01:33:34.567Z,-15.11
2024-01-09T01:33:47.605Z,-15.11
2024-01-09T01:34:01.660Z,-15.12
2024-01-09T01:34:15.200Z,-15.12
2024-01-09T01:34:28.178Z,-15.14
2024-01-09T01:34:41.483Z,-15.12
2024-01-09T01:34:54.459Z,-15.12
2024-01-09T01:35:09.293Z,-15.13
2024-01-09T01:35:22.240Z,-15.13
2024-01-09T01:35:35.154Z,-15.13
2024-01-09T01:35:49.254Z,-15.13
2024-01-09T01:36:02.188Z,-15.14
2024-01-09T01:36:15.956Z,-15.14
2024-01-09T01:36:28.883Z,-15.16
2024-01-09T01:36:41.732Z,-15.16
2024-01-09T01:36:54.702Z,-15.16
2024-01-09T01:37:07.711Z,-15.15
2024-01-09T01:37:20.780Z,-15.16
2024-01-09T01:37:34.864Z,-15.16
2024-01-09T01:37:47.738Z,-15.17
2024-01-09T01:38:00.644Z,-15.17
2024-01-09T01:38:13.649Z,-15.18
2024-01-09T01:38:27.285Z,-15.18
2024-01-09T01:38:40.313Z,-15.18
2024-01-09T01:38:53.295Z,-15.18
2024-01-09T01:39:06.253Z,-15.19
2024-01-09T01:39:20.573Z,-15.17
2024-01-09T01:39:33.467Z,-15.18
2024-01-09T01:39:46.701Z,-15.19
2024-01-09T01:39:59.545Z,-15.18
2024-01-09T01:40:13.531Z,-15.18
2024-01-09T01:40:26.471Z,-15.17
2024-01-09T01:40:39.394Z,-15.19
2024-01-09T01:40:52.374Z,-15.19
2024-01-09T01:41:06.706Z,-15.21
2024-01-09T01:41:19.794Z,-15.20
2024-01-09T01:41:32.713Z,-15.21
2024-01-09T01:41:45.665Z,-15.20
2024-01-09T01:41:58.676Z,-15.21
2024-01-09T01:42:11.978Z,-15.21
2024-01-09T01:42:24.889Z,-15.22
2024-01-09T01:42:37.817Z,-15.22
2024-01-09T01:42:50.890Z,-15.22
2024-01-09T01:43:06.601Z,-15.21
2024-01-09T01:43:19.789Z,-15.23
2024-01-09T01:43:32.749Z,-15.23
2024-01-09T01:43:45.735Z,-15.22
2024-01-09T01:43:58.643Z,-15.24
2024-01-09T01:44:18.149Z,-15.24
2024-01-09T01:44:31.216Z,-15.23
2024-01-09T01:44:44.225Z,-15.24
2024-01-09T01:44:57.318Z,-15.24
2024-01-09T01:45:18.869Z,-15.24
2024-01-09T01:45:31.978Z,-15.24
2024-01-09T01:45:44.943Z,-15.25
2024-01-09T01:45:57.833Z,-15.25
2024-01-09T01:46:11.074Z,-15.25
2024-01-09T01:46:24.194Z,-15.25
2024-01-09T01:46:37.502Z,-15.25
2024-01-09T01:46:52.692Z,-15.25
2024-01-09T01:47:07.035Z,-15.25
2024-01-09T01:47:20.449Z,-15.24
2024-01-09T01:47:34.054Z,-15.25
2024-01-09T01:47:49.360Z,-15.25
2024-01-09T01:48:04.603Z,-15.26
2024-01-09T01:48:17.913Z,-15.26
2024-01-09T01:48:33.019Z,-15.26
2024-01-09T01:48:47.292Z,-15.26
2024-01-09T01:49:00.529Z,-15.27
2024-01-09T01:49:15.825Z,-15.26
2024-01-09T01:49:29.064Z,-15.27
2024-01-09T01:49:42.717Z,-15.28
2024-01-09T01:49:55.926Z,-15.29
2024-01-09T01:50:10.622Z,-15.28
2024-01-09T01:50:24.161Z,-15.29
2024-01-09T01:50:38.740Z,-15.29
2024-01-09T01:50:52.054Z,-15.29
2024-01-09T01:51:05.848Z,-15.29
2024-01-09T01:51:19.303Z,-15.30
2024-01-09T01:51:32.212Z,-15.30
2024-01-09T01:51:46.650Z,-15.31
2024-01-09T01:52:00.681Z,-15.31
2024-01-09T01:52:14.528Z,-15.32
2024-01-09T01:52:28.733Z,-15.33
2024-01-09T01:52:43.092Z,-15.33
2024-01-09T01:52:56.397Z,-15.33
2024-01-09T01:53:09.931Z,-15.33
2024-01-09T01:53:23.352Z,-15.33
2024-01-09T01:53:37.365Z,-15.35
2024-01-09T01:53:51.123Z,-15.34
2024-01-09T01:54:04.218Z,-15.34
2024-01-09T01:54:17.574Z,-15.34
2024-01-09T01:54:34.525Z,-15.35
2024-01-09T01:54:47.971Z,-15.35
2024-01-09T01:55:01.097Z,-15.34
2024-01-09T01:55:15.744Z,-15.35
2024-01-09T01:55:30.046Z,-15.34
2024-01-09T01:55:43.241Z,-15.34
2024-01-09T01:55:56.847Z,-15.34
2024-01-09T01:56:10.050Z,-15.36
2024-01-09T01:56:23.783Z,-15.35
2024-01-09T01:56:37.154Z,-15.35
2024-01-09T01:56:53.015Z,-15.35
2024-01-09T01:57:07.353Z,-15.33
2024-01-09T01:57:20.585Z,-15.35
2024-01-09T01:57:33.757Z,-15.34
2024-01-09T01:57:48.899Z,-15.35
2024-01-09T01:58:03.444Z,-15.36
2024-01-09T01:58:16.797Z,-15.37
2024-01-09T01:58:33.554Z,-15.36
2024-01-09T01:58:47.872Z,-15.35
2024-01-09T01:59:01.870Z,-15.36
2024-01-09T01:59:18.221Z,-15.37
2024-01-09T01:59:33.687Z,-15.36
2024-01-09T01:59:47.605Z,-15.36
2024-01-09T02:00:00.692Z,-15.37
2024-01-09T02:00:16.238Z,-15.38
2024-01-09T02:00:29.724Z,-15.38
2024-01-09T02:00:43.590Z,-15.38
2024-01-09T02:00:56.995Z,-15.38
2024-01-09T02:01:11.961Z,-15.38
2024-01-09T02:01:25.193Z,-15.37
2024-01-09T02:01:39.577Z,-15.38
2024-01-09T02:01:53.614Z,-15.37
2024-01-09T02:02:07.246Z,-15.38
2024-01-09T02:02:20.532Z,-15.38
2024-01-09T02:02:33.844Z,-15.38
2024-01-09T02:02:49.130Z,-15.38
2024-01-09T02:03:03.039Z,-15.38
2024-01-09T02:03:17.153Z,-15.38
2024-01-09T02:03:30.326Z,-15.38
2024-01-09T02:03:43.462Z,-15.38
2024-01-09T02:03:57.328Z,-15.38
2024-01-09T02:04:11.472Z,-15.38
2024-01-09T02:04:25.993Z,-15.38
2024-01-09T02:04:40.717Z,-15.39
2024-01-09T02:04:54.361Z,-15.39
2024-01-09T02:05:10.926Z,-15.38
2024-01-09T02:05:27.155Z,-15.39
2024-01-09T02:05:40.857Z,-15.39
2024-01-09T02:05:54.853Z,-15.39
2024-01-09T02:06:08.477Z,-15.39
2024-01-09T02:06:21.495Z,-15.39
2024-01-09T02:06:35.265Z,-15.39
2024-01-09T02:06:48.544Z,-15.39
2024-01-09T02:07:02.228Z,-15.41
2024-01-09T02:07:16.261Z,-15.41
2024-01-09T02:07:31.818Z,-15.40
2024-01-09T02:07:47.271Z,-15.40
2024-01-09T02:08:02.463Z,-15.40
2024-01-09T02:08:16.373Z,-15.40
2024-01-09T02:08:31.773Z,-15.40
2024-01-09T02:08:45.428Z,-15.41
2024-01-09T02:08:59.441Z,-15.41
2024-01-09T02:09:12.397Z,-15.42
2024-01-09T02:09:25.576Z,-15.42
2024-01-09T02:09:38.937Z,-15.42
2024-01-09T02:09:53.232Z,-15.43
2024-01-09T02:10:06.913Z,-15.42
2024-01-09T02:10:20.958Z,-15.44
2024-01-09T02:10:34.018Z,-15.42
2024-01-09T02:10:46.992Z,-15.43
2024-01-09T02:10:59.960Z,-15.43
2024-01-09T02:11:14.393Z,-15.44
2024-01-09T02:11:27.451Z,-15.44
2024-01-09T02:11:40.583Z,-15.44
2024-01-09T02:11:54.558Z,-15.44
2024-01-09T02:12:08.654Z,-15.44
2024-01-09T02:12:21.547Z,-15.44
2024-01-09T02:12:34.638Z,-15.45
2024-01-09T02:12:47.745Z,-15.45
2024-01-09T02:13:00.669Z,-15.44
2024-01-09T02:13:15.189Z,-15.45
2024-01-09T02:13:28.059Z,-15.44
2024-01-09T02:13:41.267Z,-15.45
2024-01-09T02:13:54.122Z,-15.44
2024-01-09T02:14:07.332Z,-15.45
2024-01-09T02:14:20.282Z,-15.45
2024-01-09T02:14:33.392Z,-15.46
2024-01-09T02:14:46.554Z,-15.46
2024-01-09T02:14:59.516Z,-15.45
2024-01-09T02:15:12.443Z,-15.46
2024-01-09T02:15:26.410Z,-15.45
2024-01-09T02:15:39.901Z,-15.45
2024-01-09T02:15:52.810Z,-15.46
2024-01-09T02:16:05.925Z,-15.46
2024-01-09T02:16:19.090Z,-15.46
2024-01-09T02:16:32.012Z,-15.46
2024-01-09T02:16:44.961Z,-15.46
2024-01-09T02:16:57.849Z,-15.46
2024-01-09T02:17:10.864Z,-15.46
2024-01-09T02:17:24.794Z,-15.46
2024-01-09T02:17:40.276Z,-15.46
2024-01-09T02:17:53.545Z,-15.47
2024-01-09T02:18:06.852Z,-15.47
2024-01-09T02:18:20.053Z,-15.46
2024-01-09T02:18:33.098Z,-15.48
2024-01-09T02:18:46.060Z,-15.47
2024-01-09T02:18:59.083Z,-15.48
2024-01-09T02:19:12.335Z,-15.48
2024-01-09T02:19:25.305Z,-15.48
2024-01-09T02:19:39.331Z,-15.47
2024-01-09T02:19:52.457Z,-15.48
2024-01-09T02:20:07.662Z,-15.48
2024-01-09T02:20:23.694Z,-15.48
2024-01-09T02:20:36.802Z,-15.48
2024-01-09T02:20:49.861Z,-15.48
2024-01-09T02:21:02.891Z,-15.48
2024-01-09T02:21:15.990Z,-15.47
2024-01-09T02:21:30.553Z,-15.48
2024-01-09T02:21:44.677Z,-15.47
2024-01-09T02:21:57.681Z,-15.47
2024-01-09T02:22:10.539Z,-15.48
2024-01-09T02:22:23.790Z,-15.48
2024-01-09T02:22:37.089Z,-15.48
2024-01-09T02:22:50.214Z,-15.48
2024-01-09T02:23:03.472Z,-15.48
2024-01-09T02:23:17.437Z,-15.48
2024-01-09T02:23:30.733Z,-15.49
2024-01-09T02:23:44.491Z,-15.48
2024-01-09T02:23:57.729Z,-15.49
2024-01-09T02:24:10.743Z,-15.49
2024-01-09T02:24:23.644Z,-15.48
2024-01-09T02:24:36.710Z,-15.48
2024-01-09T02:24:49.548Z,-15.48
2024-01-09T02:25:02.496Z,-15.49
2024-01-09T02:25:16.443Z,-15.49
2024-01-09T02:25:29.924Z,-15.49
2024-01-09T02:25:43.041Z,-15.49
2024-01-09T02:26:05.490Z,-15.49
2024-01-09T02:26:39.678Z,-15.49
2024-01-09T02:27:05.385Z,-15.50
2024-01-09T02:27:29.273Z,-15.50
2024-01-09T02:27:51.588Z,-15.49
2024-01-09T02:28:12.448Z,-15.51
2024-01-09T02:28:29.017Z,-15.51
2024-01-09T02:28:48.047Z,-15.52
2024-01-09T02:29:07.147Z,-15.52
2024-01-09T02:29:24.118Z,-15.52
2024-01-09T02:29:48.093Z,-15.52
2024-01-09T02:30:02.110Z,-15.52
2024-01-09T02:30:15.278Z,-15.52
2024-01-09T02:30:29.146Z,-15.52
2024-01-09T02:30:43.870Z,-15.52
2024-01-09T02:30:58.102Z,-15.52
2024-01-09T02:31:11.298Z,-15.52
2024-01-09T02:31:24.444Z,-15.53
2024-01-09T02:31:37.951Z,-15.52
2024-01-09T02:31:51.293Z,-15.51
2024-01-09T02:32:05.875Z,-15.52
2024-01-09T02:32:21.269Z,-15.51
2024-01-09T02:32:36.242Z,-15.52
2024-01-09T02:32:49.542Z,-15.52
2024-01-09T02:33:02.923Z,-15.52
2024-01-09T02:33:16.244Z,-15.52
2024-01-09T02:33:29.939Z,-15.52
2024-01-09T02:33:44.592Z,-15.51
2024-01-09T02:33:59.938Z,-15.50
2024-01-09T02:34:14.555Z,-15.52
2024-01-09T02:34:29.835Z,-15.52
2024-01-09T02:34:44.776Z,-15.52
2024-01-09T02:34:57.798Z,-15.53
2024-01-09T02:35:10.779Z,-15.52
2024-01-09T02:35:23.892Z,-15.53
2024-01-09T02:35:37.155Z,-15.52
2024-01-09T02:35:50.199Z,-15.53
2024-01-09T02:36:03.150Z,-15.53
2024-01-09T02:36:17.095Z,-15.54
2024-01-09T02:36:30.006Z,-15.53
2024-01-09T02:36:42.940Z,-15.54
2024-01-09T02:36:55.855Z,-15.55
2024-01-09T02:37:08.768Z,-15.54
2024-01-09T02:37:21.726Z,-15.54
2024-01-09T02:37:34.964Z,-15.55
2024-01-09T02:37:48.426Z,-15.54
2024-01-09T02:38:01.517Z,-15.54
2024-01-09T02:38:15.452Z,-15.55
2024-01-09T02:38:28.424Z,-15.55
2024-01-09T02:38:41.361Z,-15.54
2024-01-09T02:38:54.338Z,-15.54
2024-01-09T02:39:08.613Z,-15.55
2024-01-09T02:39:21.492Z,-15.55
2024-01-09T02:39:34.458Z,-15.54
2024-01-09T02:39:47.355Z,-15.56
2024-01-09T02:40:01.635Z,-15.55
2024-01-09T02:40:14.666Z,-15.54
2024-01-09T02:40:27.580Z,-15.55
2024-01-09T02:40:41.735Z,-15.56
2024-01-09T02:40:54.994Z,-15.55
2024-01-09T02:41:07.974Z,-15.56
2024-01-09T02:41:20.961Z,-15.55
2024-01-09T02:41:37.537Z,-15.55
2024-01-09T02:41:52.116Z,-15.55
2024-01-09T02:42:05.657Z,-15.56
2024-01-09T02:42:18.741Z,-15.56
2024-01-09T02:42:32.639Z,-15.56
2024-01-09T02:42:45.568Z,-15.56
2024-01-09T02:42:58.497Z,-15.57
2024-01-09T02:43:11.630Z,-15.56
2024-01-09T02:43:24.484Z,-15.56
2024-01-09T02:43:37.421Z,-15.58
2024-01-09T02:43:50.321Z,-15.56
2024-01-09T02:44:03.293Z,-15.55
2024-01-09T02:44:17.475Z,-15.56
2024-01-09T02:44:30.418Z,-15.56
2024-01-09T02:44:44.750Z,-15.56
2024-01-09T02:44:59.059Z,-15.58
2024-01-09T02:45:14.945Z,-15.56
2024-01-09T02:45:27.947Z,-15.56
2024-01-09T02:45:40.922Z,-15.56
2024-01-09T02:45:54.014Z,-15.56
2024-01-09T02:46:07.039Z,-15.57
2024-01-09T02:46:20.160Z,-15.56
2024-01-09T02:46:33.061Z,-15.56
2024-01-09T02:46:47.467Z,-15.56
2024-01-09T02:47:00.360Z,-15.55
2024-01-09T02:47:14.195Z,-15.57
2024-01-09T02:47:28.093Z,-15.58
2024-01-09T02:47:41.138Z,-15.58
2024-01-09T02:47:54.433Z,-15.57
2024-01-09T02:48:08.508Z,-15.59
2024-01-09T02:48:21.688Z,-15.58
2024-01-09T02:48:36.637Z,-15.56
2024-01-09T02:48:49.633Z,-15.58
2024-01-09T02:49:02.648Z,-15.56
2024-01-09T02:49:15.826Z,-15.59
2024-01-09T02:49:28.839Z,-15.57
2024-01-09T02:49:41.761Z,-15.56
2024-01-09T02:49:54.835Z,-15.58
2024-01-09T02:50:08.530Z,-15.58
2024-01-09T02:50:21.842Z,-15.58
2024-01-09T02:50:35.933Z,-15.58
2024-01-09T02:50:49.000Z,-15.58
2024-01-09T02:51:01.995Z,-15.56
2024-01-09T02:51:15.016Z,-15.58